KOXC/OXC METAR and TAF weather

Enter ICAO airport designator
Station Type Date Time Source
KOXC METAR 2020/10/20 16:51 UTC NOAA

KOXC 201651Z 19004KT 10SM OVC007 17/16 A3026 RMK AO2 SLP259 T01720161


Station Type Date Time Source
KOXC Decoded METAR 2020/10/20 16:51 UTC NOAA

Oxford, Waterbury-Oxford Airport, CT, United States (KOXC) 41-29N 073-08W
Oct 20, 2020 - 12:51 PM EDT / 2020.10.20 1651 UTC
Wind: from the S (190 degrees) at 5 MPH (4 KT):0
Visibility: 10 mile(s):0
Sky conditions: overcast
Temperature: 63.0 F (17.2 C)
Dew Point: 61.0 F (16.1 C)
Relative Humidity: 93%
Pressure (altimeter): 30.26 in. Hg (1024 hPa)
ob: KOXC 201651Z 19004KT 10SM OVC007 17/16 A3026 RMK AO2 SLP259 T01720161
cycle: 17

Station Type Date Time Source
KOXC TAF UTC NOAA

Error!

Example: see airport list